Barwick, Georgia
Current Conditions -  °F | °C
As of 6:55 AM on Sunday 23 Nov 2014 (Local Time) from KTVI Reporting Station
Moderate Rain Moderate Rain  
Wind Chill: 63°   Ceiling: 300
Heat Index: 63°   Visibility: 5mi
Dew Point: 63°   Wind: 7mph
Humidity: 100%   Direction: 130°SE
Pressure: 29.96"   Gusts: NA
Location:  30.89°N, 83.74°W
Report Text: KTVI 231155Z AUTO 13006KT 5SM RA OVC003 17/17 A2996 RMK AO2
Loading
Personal Weather Stations






























Interactive Weather Map New forecast layout! Learn more

10-Day Weather Forecast

Advertisements
Track Severe Weather on mobile